Lake Station, IN (46405)

8:05 PM CDT on September 15, 2014 (GMT -0500)
Lake Dombey | Change Station
CLOSE
Current Station
Personal Weather Station
Location: Portage, IN
Elevation: 640 ft
Nearby Weather Stations
Active Advisory: Flood Warning Active Notice: Public Information Statement

Elev 640 ft 41.58 °N, 87.21 °W | Updated 5 seconds ago

Overcast
Overcast
56.0 °F
Feels Like 56.0 °F
N
0.0
Wind Variable Wind from SSW
Gusts 0.0 mph

Today
High -- | Low -- °F
--% Chance of Precip.
Yesterday
High -- | Low -- °F
Precip. -- in
6:29 AM 6:58 PM
Waning Gibbous, 50% visible
Pressure 30.12 in
Visibility 7.0 miles
Clouds Overcast 4000 ft
Dew Point 53 °F
Humidity 90%
Rainfall 0.01 in
Snow Depth Not available.
UV 0 out of 12
Pollen 4.50 out of 12
Ozone Good
PM2.5 Moderate
Flu Activity Not available.
METAR KGYY 160045Z 24006KT 7SM OVC040 14/13 A3012

More Conditions Fewer Conditions

Pressure 30.12 in
Visibility 7.0 miles
Clouds Overcast 4000 ft
Dew Point 53 °F
Humidity 90%
Rainfall 0.01 in
Snow Depth Not available.
UV 0 out of 12
Pollen 4.50 out of 12
Ozone Good
PM2.5 Moderate
Flu Activity Not available.
METAR KGYY 160045Z 24006KT 7SM OVC040 14/13 A3012

More Conditions Fewer Conditions

10-Day Weather Forecast

Almanac

Astronomy

Sep. 15, 2014 Rise Set
Actual Time 6:29 AM CDT 6:58 PM CDT
Civil Twilight 6:01 AM CDT 7:26 PM CDT
Nautical Twilight 5:28 AM CDT 7:58 PM CDT
Astronomical Twilight 4:54 AM CDT 8:32 PM CDT
Moon 11:36 PM CDT (9/15) 1:33 PM CDT (9/15)
Length of Visible Light 13h 24m
Length of Day
12h 29m
Tomorrow will be 2m 45s shorter.
Waning Gibbous, 50% of the Moon is Illuminated
Today
Waning Gibbous
Sep 15
Last Quarter
Sep 24
New
Oct 1
First Quarter
Oct 8
Full

Community

WunderPhotos

Upload Photos

1,753,630 photos uploaded!

WunderBlogs® & News

Nearby

Air Quality

  Air Quality AQ Index Pollutant
Yesterday Good
PM10
Yesterday Good
OZONE
Current Moderate
PM2.5
Current Good
OZONE
Monday Moderate
PM2.5
Monday Good
OZONE
Tuesday Good
OZONE
Tuesday Good
PM2.5
Wednesday Moderate
PM2.5
Wednesday Good
OZONE
Thursday Moderate
PM2.5
Thursday Good
OZONE

Snow Depth

Station Depth Elevation
No new snow has been reported.

Earthquake Activity

City Distance Mag. Time & Date
No recent earthquake activity has been reported nearby.
Minimum magnitude displayed is 2.5.

Coastal Water Temperatures

Place Temperature
No Stations Reporting

Nearby Weather Stations